Terminal Aerodrome Forecast
Issued by NWS Springfield, MO

Home | Current Version | Previous Version | Text Only | Print | Product List | Glossary On
Versions: 1 2 3 4 5 6 7 8 9 10 11 12 13 14 15 16 17 18 19 20 21 22 23 24 25 26
000
FTUS43 KSGF 131100
TAFSGF
TAF
KSGF 131131Z 1312/1412 18013KT P6SM VCSH SCT060 OVC100
      WS020/20045KT
     FM131400 17020G28KT 6SM -SHRA SCT025 OVC070
     FM131800 18020G28KT P6SM SCT025 BKN050
     FM140100 21013G26KT 5SM -TSRA BR BKN025CB OVC050
     FM140400 32014G24KT 5SM -SHRA BR OVC008
     FM140800 33013G22KT 6SM BR BKN008 OVC020=

USA.gov is the U.S. government's official web portal to all federal, state and local government web resources and services.